Time;durP1;ratioP1;P1;durP2;ratioP2;P2;SDS_P1;SDS_P2;PMS_P1;PMS_P2;Temp;Humidity;BMP_temperature;BMP_pressure;BME280_temperature;BME280_humidity;BME280_pressure;Samples;Min_cycle;Max_cycle;Signal;HPM_P1;HPM_P2
2022/11/08 00:02:25;;;;;;;54.05;35.72;;;;;;;;;;5052678;28;20036;-76
2022/11/08 00:04:51;;;;;;;57.67;36.45;;;;;;;;;;5052810;28;20083;-76
2022/11/08 00:15:37;;;;;;;65.78;42.30;;;;;;;;;;5052620;28;20071;-75
2022/11/08 00:18:03;;;;;;;64.88;40.50;;;;;;;;;;5052980;28;20017;-76
2022/11/08 00:20:29;;;;;;;60.75;41.25;;;;;;;;;;5052336;28;20024;-75
2022/11/08 00:22:55;;;;;;;67.50;44.30;;;;;;;;;;5052645;28;20022;-76
2022/11/08 00:25:21;;;;;;;71.78;49.45;;;;;;;;;;5052311;28;20103;-76
2022/11/08 00:27:47;;;;;;;73.07;46.80;;;;;;;;;;5054933;28;20067;-76
2022/11/08 00:30:13;;;;;;;84.88;51.00;;;;;;;;;;5056283;28;20029;-75
2022/11/08 00:32:39;;;;;;;69.40;44.40;;;;;;;;;;5057116;28;20028;-76
2022/11/08 00:35:05;;;;;;;66.68;42.13;;;;;;;;;;5056152;28;20025;-75
2022/11/08 00:37:32;;;;;;;74.95;47.92;;;;;;;;;;5056374;28;20017;-75
2022/11/08 00:39:58;;;;;;;64.47;43.35;;;;;;;;;;5056161;28;20025;-76
2022/11/08 00:42:24;;;;;;;60.75;39.75;;;;;;;;;;5056452;28;20032;-75
2022/11/08 00:44:50;;;;;;;63.03;39.20;;;;;;;;;;5055920;28;20048;-74
2022/11/08 00:47:16;;;;;;;56.75;38.08;;;;;;;;;;5056677;28;20033;-74
2022/11/08 00:49:42;;;;;;;59.83;39.53;;;;;;;;;;5055862;28;20021;-75
2022/11/08 00:52:08;;;;;;;58.45;38.78;;;;;;;;;;5056320;28;20033;-75
2022/11/08 00:54:35;;;;;;;59.42;38.03;;;;;;;;;;5055931;28;20032;-75
2022/11/08 00:57:01;;;;;;;56.85;36.10;;;;;;;;;;5056091;28;20525;-75
2022/11/08 00:59:27;;;;;;;55.97;36.63;;;;;;;;;;5056329;28;20059;-76
2022/11/08 01:01:53;;;;;;;58.65;35.13;;;;;;;;;;5055690;28;20040;-75
2022/11/08 01:04:19;;;;;;;47.13;32.72;;;;;;;;;;5055571;28;20100;-75
2022/11/08 01:06:46;;;;;;;51.45;34.25;;;;;;;;;;5056005;28;20021;-75
2022/11/08 01:09:12;;;;;;;57.10;36.17;;;;;;;;;;5028961;28;20022;-75
2022/11/08 01:11:39;;;;;;;60.38;40.63;;;;;;;;;;5050143;28;20493;-75
2022/11/08 01:14:05;;;;;;;62.08;39.95;;;;;;;;;;5055682;28;20029;-75
2022/11/08 01:16:32;;;;;;;60.92;39.63;;;;;;;;;;5055707;28;20025;-76
2022/11/08 01:18:58;;;;;;;56.42;36.60;;;;;;;;;;5055290;28;20022;-75
2022/11/08 01:21:25;;;;;;;62.22;37.80;;;;;;;;;;5055494;28;20485;-75
2022/11/08 01:23:53;;;;;;;46.80;31.92;;;;;;;;;;5055487;28;20027;-75
2022/11/08 01:26:21;;;;;;;52.70;33.47;;;;;;;;;;5055270;28;20071;-75
2022/11/08 01:28:47;;;;;;;49.05;32.22;;;;;;;;;;5055306;28;20017;-75
2022/11/08 01:31:15;;;;;;;50.28;33.53;;;;;;;;;;5055249;28;20028;-75
2022/11/08 01:33:41;;;;;;;78.20;49.20;;;;;;;;;;5055352;28;20386;-75
2022/11/08 01:36:08;;;;;;;69.18;43.78;;;;;;;;;;5055015;28;20123;-75
2022/11/08 01:38:35;;;;;;;52.60;34.72;;;;;;;;;;5052600;28;20368;-75
2022/11/08 01:41:01;;;;;;;54.33;33.80;;;;;;;;;;5054887;28;20083;-75
2022/11/08 01:43:32;;;;;;;50.63;32.95;;;;;;;;;;5042039;28;20483;-75
2022/11/08 01:46:01;;;;;;;51.95;31.25;;;;;;;;;;5052286;28;20120;-75
2022/11/08 01:48:28;;;;;;;51.90;32.28;;;;;;;;;;5054935;28;20083;-75
2022/11/08 01:50:56;;;;;;;44.97;30.90;;;;;;;;;;5054499;28;20124;-76
2022/11/08 01:53:22;;;;;;;48.75;33.53;;;;;;;;;;5055444;28;20017;-75
2022/11/08 01:55:49;;;;;;;48.45;31.48;;;;;;;;;;5054756;28;20048;-74
2022/11/08 01:58:17;;;;;;;51.53;33.13;;;;;;;;;;5054695;28;20017;-75
2022/11/08 02:00:43;;;;;;;46.80;31.95;;;;;;;;;;5054635;28;20017;-75
2022/11/08 02:03:11;;;;;;;45.95;31.55;;;;;;;;;;5054574;28;20052;-75
2022/11/08 02:05:38;;;;;;;49.15;32.90;;;;;;;;;;5054702;28;20082;-75
2022/11/08 02:08:13;;;;;;;49.80;32.47;;;;;;;;;;5053131;28;20025;-75
2022/11/08 02:10:43;;;;;;;48.08;32.00;;;;;;;;;;5041078;28;20082;-75
2022/11/08 02:13:14;;;;;;;51.47;31.35;;;;;;;;;;5054523;28;20475;-75
2022/11/08 02:15:40;;;;;;;50.77;32.93;;;;;;;;;;5054409;28;20067;-75
2022/11/08 02:18:06;;;;;;;56.92;34.33;;;;;;;;;;5054359;28;20029;-75
2022/11/08 02:20:33;;;;;;;47.30;33.08;;;;;;;;;;5054162;28;20020;-76
2022/11/08 02:22:59;;;;;;;50.42;33.65;;;;;;;;;;5054197;28;20021;-75
2022/11/08 02:25:26;;;;;;;53.58;34.53;;;;;;;;;;5054245;28;20036;-76
2022/11/08 02:27:52;;;;;;;50.25;35.00;;;;;;;;;;5054103;28;20098;-76
2022/11/08 02:30:18;;;;;;;54.88;33.95;;;;;;;;;;5054038;28;20025;-75
2022/11/08 02:32:46;;;;;;;54.03;35.42;;;;;;;;;;5053834;28;20113;-76
2022/11/08 02:35:13;;;;;;;60.17;38.40;;;;;;;;;;5054220;28;20013;-75
2022/11/08 02:37:39;;;;;;;59.67;40.25;;;;;;;;;;5053773;28;20017;-76
2022/11/08 02:40:06;;;;;;;60.13;40.90;;;;;;;;;;5054114;28;20245;-75
2022/11/08 02:42:32;;;;;;;58.70;40.13;;;;;;;;;;5053957;28;20087;-75
2022/11/08 02:44:58;;;;;;;61.47;39.58;;;;;;;;;;5052787;28;20057;-75
2022/11/08 02:47:24;;;;;;;56.35;37.83;;;;;;;;;;5053666;28;20033;-75
2022/11/08 02:49:50;;;;;;;57.80;36.95;;;;;;;;;;5052966;28;20017;-75
2022/11/08 02:52:17;;;;;;;58.58;37.92;;;;;;;;;;5053737;28;20040;-75
2022/11/08 02:54:43;;;;;;;52.60;36.05;;;;;;;;;;5053806;28;20096;-75
2022/11/08 02:57:09;;;;;;;57.53;37.83;;;;;;;;;;5053476;28;20025;-75
2022/11/08 02:59:35;;;;;;;58.03;37.75;;;;;;;;;;5053621;28;20225;-76
2022/11/08 03:02:01;;;;;;;52.72;33.88;;;;;;;;;;5053409;28;20075;-75
2022/11/08 03:04:27;;;;;;;56.10;35.72;;;;;;;;;;5053578;28;20033;-75
2022/11/08 03:06:53;;;;;;;48.58;33.10;;;;;;;;;;5053233;28;20017;-76
2022/11/08 03:09:19;;;;;;;55.60;34.42;;;;;;;;;;5053602;28;20032;-75
2022/11/08 03:11:45;;;;;;;56.33;34.20;;;;;;;;;;5053287;28;20051;-76
2022/11/08 03:14:11;;;;;;;53.33;32.97;;;;;;;;;;5053397;28;20028;-75
2022/11/08 03:16:37;;;;;;;54.30;33.65;;;;;;;;;;5053232;28;20499;-76
2022/11/08 03:19:03;;;;;;;51.63;33.38;;;;;;;;;;5053002;28;20029;-75
2022/11/08 03:21:30;;;;;;;49.63;32.63;;;;;;;;;;5053104;28;20083;-75
2022/11/08 03:23:56;;;;;;;53.22;33.70;;;;;;;;;;5053271;28;20013;-75
2022/11/08 03:26:22;;;;;;;54.28;33.63;;;;;;;;;;5053105;28;20021;-75
2022/11/08 03:28:48;;;;;;;53.50;34.15;;;;;;;;;;5053148;28;20024;-76
2022/11/08 03:31:14;;;;;;;54.60;36.22;;;;;;;;;;5052843;28;20558;-75
2022/11/08 03:33:40;;;;;;;53.70;35.53;;;;;;;;;;5053135;28;20371;-75
2022/11/08 03:36:06;;;;;;;52.28;35.10;;;;;;;;;;5052941;28;20040;-75
2022/11/08 03:38:32;;;;;;;62.03;40.03;;;;;;;;;;5052969;28;20060;-75
2022/11/08 03:40:58;;;;;;;59.05;40.85;;;;;;;;;;5052810;28;20028;-76
2022/11/08 03:43:25;;;;;;;70.63;45.25;;;;;;;;;;5052818;28;20036;-75
2022/11/08 03:45:52;;;;;;;70.60;43.83;;;;;;;;;;5032902;28;20427;-76
2022/11/08 03:48:18;;;;;;;71.57;47.40;;;;;;;;;;5032879;28;20049;-75
2022/11/08 03:50:45;;;;;;;78.93;45.65;;;;;;;;;;5032629;28;20170;-75
2022/11/08 03:53:11;;;;;;;72.65;48.65;;;;;;;;;;5032877;28;20052;-76
2022/11/08 03:55:37;;;;;;;72.72;47.80;;;;;;;;;;5032734;28;20020;-76
2022/11/08 03:58:03;;;;;;;77.28;49.15;;;;;;;;;;5015046;28;20034;-75
2022/11/08 04:00:29;;;;;;;68.32;46.05;;;;;;;;;;5032417;28;20017;-76
2022/11/08 04:03:00;;;;;;;70.82;44.10;;;;;;;;;;5033239;28;20049;-75
2022/11/08 04:05:26;;;;;;;66.40;44.88;;;;;;;;;;5032935;28;20022;-76
2022/11/08 04:07:52;;;;;;;60.22;37.85;;;;;;;;;;5032694;28;20376;-75
2022/11/08 04:10:19;;;;;;;56.45;37.40;;;;;;;;;;5032690;28;20034;-75
2022/11/08 04:15:30;;;;;;;55.35;37.17;;;;;;;;;;5032796;28;20129;-75
2022/11/08 04:23:30;;;;;;;59.90;42.42;;;;;;;;;;5032644;28;20530;-75
2022/11/08 04:26:00;;;;;;;60.35;39.72;;;;;;;;;;5032719;28;20443;-76
2022/11/08 04:28:27;;;;;;;57.95;38.10;;;;;;;;;;5032286;28;20026;-75
2022/11/08 04:30:54;;;;;;;62.70;41.38;;;;;;;;;;5032475;28;20040;-76
2022/11/08 04:33:20;;;;;;;53.08;34.38;;;;;;;;;;5032419;28;20387;-75
2022/11/08 04:35:47;;;;;;;54.13;33.42;;;;;;;;;;5032521;28;20100;-76
2022/11/08 04:38:13;;;;;;;54.25;34.20;;;;;;;;;;5032398;28;20033;-74
2022/11/08 04:40:39;;;;;;;60.25;40.08;;;;;;;;;;5032271;28;20021;-75
2022/11/08 04:43:05;;;;;;;53.50;35.80;;;;;;;;;;5032269;28;20086;-76
2022/11/08 04:45:31;;;;;;;52.40;36.53;;;;;;;;;;5049327;28;20528;-75
2022/11/08 04:47:57;;;;;;;55.38;35.13;;;;;;;;;;5052114;28;20021;-75
2022/11/08 04:50:23;;;;;;;59.42;36.90;;;;;;;;;;5052138;28;20023;-75
2022/11/08 04:52:52;;;;;;;50.55;35.05;;;;;;;;;;5052034;28;20029;-75
2022/11/08 04:55:21;;;;;;;60.75;39.40;;;;;;;;;;5038548;28;20490;-76
2022/11/08 04:57:47;;;;;;;64.97;41.05;;;;;;;;;;5051927;28;20498;-75
2022/11/08 05:00:14;;;;;;;62.67;40.35;;;;;;;;;;5051975;28;20025;-75
2022/11/08 05:02:40;;;;;;;59.28;39.90;;;;;;;;;;5052247;28;20052;-75
2022/11/08 05:05:07;;;;;;;61.47;42.15;;;;;;;;;;5051806;28;20032;-75
2022/11/08 05:07:33;;;;;;;67.13;40.88;;;;;;;;;;5041625;28;20033;-76
2022/11/08 05:09:59;;;;;;;58.47;39.53;;;;;;;;;;5046933;28;20414;-75
2022/11/08 05:12:25;;;;;;;63.25;42.25;;;;;;;;;;5052166;28;20119;-75
2022/11/08 05:14:51;;;;;;;66.88;42.70;;;;;;;;;;5055662;28;20379;-75
2022/11/08 05:17:17;;;;;;;73.25;48.05;;;;;;;;;;5055473;28;20025;-75
2022/11/08 05:25:12;;;;;;;69.00;44.47;;;;;;;;;;5055102;28;20446;-76
2022/11/08 05:27:38;;;;;;;63.47;40.70;;;;;;;;;;5055522;28;20021;-76
2022/11/08 05:30:04;;;;;;;56.38;39.65;;;;;;;;;;5055446;28;20029;-76
2022/11/08 05:32:30;;;;;;;116.32;86.57;;;;;;;;;;5035446;28;20025;-76
2022/11/08 05:34:56;;;;;;;111.95;84.72;;;;;;;;;;5045849;28;20234;-75
2022/11/08 05:37:22;;;;;;;81.55;56.90;;;;;;;;;;5038601;28;20384;-75
2022/11/08 05:39:48;;;;;;;75.32;46.55;;;;;;;;;;5054843;28;20025;-75
2022/11/08 05:42:15;;;;;;;60.25;39.08;;;;;;;;;;5054960;28;20380;-74
2022/11/08 05:44:41;;;;;;;63.70;40.92;;;;;;;;;;5054762;28;20477;-76
2022/11/08 05:47:07;;;;;;;70.35;39.28;;;;;;;;;;5055042;28;20104;-76
2022/11/08 05:49:33;;;;;;;72.20;43.20;;;;;;;;;;5054644;28;20017;-75
2022/11/08 05:51:59;;;;;;;64.22;41.80;;;;;;;;;;5055318;28;20029;-75
2022/11/08 05:54:25;;;;;;;69.50;43.10;;;;;;;;;;5040338;28;20434;-76
2022/11/08 05:56:51;;;;;;;78.68;45.88;;;;;;;;;;5053754;28;20113;-76
2022/11/08 05:59:17;;;;;;;69.35;46.72;;;;;;;;;;5054675;28;20025;-76
2022/11/08 06:01:43;;;;;;;73.55;49.22;;;;;;;;;;5053457;28;20025;-75
2022/11/08 06:04:09;;;;;;;76.90;49.65;;;;;;;;;;5054552;28;20048;-76
2022/11/08 06:06:35;;;;;;;90.25;58.85;;;;;;;;;;5054610;28;20028;-76
2022/11/08 06:09:01;;;;;;;77.10;50.30;;;;;;;;;;5054479;28;20028;-76
2022/11/08 06:11:28;;;;;;;68.20;46.03;;;;;;;;;;5054157;28;20086;-76
2022/11/08 06:13:54;;;;;;;63.03;45.20;;;;;;;;;;5054472;28;20029;-76
2022/11/08 06:16:21;;;;;;;71.28;44.53;;;;;;;;;;5054227;28;20039;-76
2022/11/08 06:18:47;;;;;;;77.30;49.13;;;;;;;;;;5039251;28;20485;-76
2022/11/08 06:21:14;;;;;;;75.43;51.05;;;;;;;;;;5054164;28;20573;-75
2022/11/08 06:23:41;;;;;;;80.65;49.58;;;;;;;;;;5054173;28;20094;-76
2022/11/08 06:26:07;;;;;;;79.40;51.97;;;;;;;;;;5053979;28;20103;-76
2022/11/08 06:28:33;;;;;;;83.40;52.95;;;;;;;;;;5054414;28;20021;-76
2022/11/08 06:30:59;;;;;;;87.13;53.38;;;;;;;;;;5054033;28;20040;-76
2022/11/08 06:33:25;;;;;;;82.70;49.90;;;;;;;;;;5054161;28;20033;-76
2022/11/08 06:35:51;;;;;;;73.55;49.10;;;;;;;;;;5053973;28;20028;-76
2022/11/08 06:38:17;;;;;;;71.72;46.63;;;;;;;;;;5054093;28;20027;-76
2022/11/08 06:40:44;;;;;;;67.13;47.88;;;;;;;;;;5053523;28;20534;-76
2022/11/08 06:43:11;;;;;;;75.82;50.50;;;;;;;;;;5054080;28;20364;-76
2022/11/08 06:45:37;;;;;;;75.63;48.67;;;;;;;;;;5053461;28;20426;-75
2022/11/08 06:48:04;;;;;;;74.20;49.97;;;;;;;;;;5053966;28;20082;-76
2022/11/08 06:50:31;;;;;;;76.45;49.22;;;;;;;;;;5053469;28;20032;-76
2022/11/08 06:52:58;;;;;;;70.63;49.08;;;;;;;;;;5053653;28;20032;-76
2022/11/08 06:55:24;;;;;;;76.38;51.00;;;;;;;;;;5053490;28;20017;-76
2022/11/08 06:57:50;;;;;;;74.45;50.65;;;;;;;;;;5053755;28;20460;-76
2022/11/08 07:00:17;;;;;;;81.47;53.17;;;;;;;;;;5032704;28;20488;-76
2022/11/08 07:02:43;;;;;;;83.32;53.90;;;;;;;;;;5045146;28;20036;-75
2022/11/08 07:05:10;;;;;;;81.57;53.33;;;;;;;;;;5052991;28;20017;-76
2022/11/08 07:07:36;;;;;;;74.25;52.38;;;;;;;;;;5053533;28;20445;-76
2022/11/08 07:10:02;;;;;;;74.18;51.80;;;;;;;;;;5053069;28;20021;-76
2022/11/08 07:12:28;;;;;;;85.38;51.63;;;;;;;;;;5053440;28;20078;-76
2022/11/08 07:14:54;;;;;;;80.75;55.42;;;;;;;;;;5051958;28;20025;-76
2022/11/08 07:17:20;;;;;;;83.68;59.38;;;;;;;;;;5053489;28;20112;-76
2022/11/08 07:19:46;;;;;;;78.85;55.38;;;;;;;;;;5039259;28;20436;-76
2022/11/08 07:22:12;;;;;;;88.75;57.85;;;;;;;;;;5050825;28;20374;-76
2022/11/08 07:24:38;;;;;;;78.70;54.95;;;;;;;;;;5052859;28;20474;-76
2022/11/08 07:27:04;;;;;;;82.03;55.92;;;;;;;;;;5052938;28;20024;-76
2022/11/08 07:29:30;;;;;;;79.75;53.85;;;;;;;;;;5052898;28;20017;-76
2022/11/08 07:31:56;;;;;;;80.22;55.92;;;;;;;;;;5052903;28;20036;-76
2022/11/08 07:34:23;;;;;;;84.82;56.05;;;;;;;;;;5052637;28;20043;-77
2022/11/08 07:36:49;;;;;;;81.97;57.50;;;;;;;;;;5038607;28;20037;-76
2022/11/08 07:39:15;;;;;;;83.70;54.83;;;;;;;;;;5050660;28;20037;-76
2022/11/08 07:41:41;;;;;;;90.18;63.22;;;;;;;;;;5052680;28;20478;-76
2022/11/08 07:44:07;;;;;;;79.70;51.65;;;;;;;;;;5034193;28;20049;-75
2022/11/08 07:46:33;;;;;;;72.45;48.97;;;;;;;;;;5052981;28;20061;-76
2022/11/08 07:48:59;;;;;;;77.18;51.22;;;;;;;;;;5052631;28;20029;-76
2022/11/08 07:51:25;;;;;;;71.85;46.90;;;;;;;;;;5052467;28;20041;-76
2022/11/08 07:53:51;;;;;;;67.03;43.08;;;;;;;;;;5052684;28;20048;-76
2022/11/08 07:56:17;;;;;;;68.78;46.40;;;;;;;;;;5052404;28;20390;-76
2022/11/08 07:58:43;;;;;;;71.65;46.75;;;;;;;;;;5053115;28;20079;-76
2022/11/08 08:01:09;;;;;;;74.28;47.50;;;;;;;;;;5051385;28;20025;-76
2022/11/08 08:03:36;;;;;;;68.65;45.13;;;;;;;;;;5051464;28;20013;-76
2022/11/08 08:06:02;;;;;;;84.70;48.17;;;;;;;;;;5051123;28;20497;-76
2022/11/08 08:08:29;;;;;;;99.60;54.10;;;;;;;;;;5052528;28;20028;-76
2022/11/08 08:10:59;;;;;;;86.53;50.60;;;;;;;;;;5052406;28;20113;-77
2022/11/08 08:13:25;;;;;;;83.50;51.75;;;;;;;;;;5052641;28;20514;-76
2022/11/08 08:15:51;;;;;;;83.32;51.63;;;;;;;;;;5051268;28;20036;-76
2022/11/08 08:18:19;;;;;;;93.72;55.88;;;;;;;;;;5052561;28;20032;-76
2022/11/08 08:20:46;;;;;;;80.20;50.10;;;;;;;;;;5052210;28;20013;-76
2022/11/08 08:23:12;;;;;;;74.55;43.65;;;;;;;;;;5052507;28;20017;-76
2022/11/08 08:25:38;;;;;;;78.85;46.28;;;;;;;;;;5052136;28;20028;-76
2022/11/08 08:28:05;;;;;;;70.05;42.10;;;;;;;;;;5052137;28;20048;-76
2022/11/08 08:30:33;;;;;;;62.33;40.70;;;;;;;;;;5052135;28;20020;-76
2022/11/08 08:33:07;;;;;;;65.78;41.65;;;;;;;;;;5052376;28;20053;-76
2022/11/08 08:35:36;;;;;;;72.65;47.60;;;;;;;;;;5052033;28;20025;-76
2022/11/08 08:38:03;;;;;;;70.07;41.63;;;;;;;;;;5042908;28;20079;-75
2022/11/08 08:40:30;;;;;;;76.28;50.00;;;;;;;;;;5032451;28;20017;-76
2022/11/08 08:42:57;;;;;;;104.60;67.45;;;;;;;;;;5052305;28;20033;-76
2022/11/08 08:45:24;;;;;;;59.00;39.83;;;;;;;;;;5052023;28;20049;-75
2022/11/08 08:47:51;;;;;;;62.50;40.88;;;;;;;;;;5052658;28;20033;-76
2022/11/08 08:50:17;;;;;;;78.13;48.72;;;;;;;;;;5055814;28;20037;-77
2022/11/08 08:52:43;;;;;;;65.05;41.53;;;;;;;;;;5056005;28;20071;-76
2022/11/08 08:55:09;;;;;;;73.25;43.22;;;;;;;;;;5055511;28;20031;-76
2022/11/08 08:57:35;;;;;;;49.55;32.17;;;;;;;;;;5055868;28;20021;-76
2022/11/08 09:00:01;;;;;;;42.40;28.73;;;;;;;;;;5055535;28;20475;-76
2022/11/08 09:02:27;;;;;;;40.90;28.50;;;;;;;;;;5055923;28;20382;-77
2022/11/08 09:04:53;;;;;;;41.78;28.30;;;;;;;;;;5055554;28;20032;-77
2022/11/08 09:07:19;;;;;;;44.78;31.63;;;;;;;;;;5046123;28;20037;-75
2022/11/08 09:09:45;;;;;;;42.45;29.17;;;;;;;;;;5048758;28;20025;-75
2022/11/08 09:12:11;;;;;;;41.95;28.92;;;;;;;;;;5055417;28;20037;-75
2022/11/08 09:14:37;;;;;;;45.85;30.77;;;;;;;;;;5055551;28;20104;-76
2022/11/08 09:17:03;;;;;;;41.30;30.27;;;;;;;;;;5055320;28;20025;-76
2022/11/08 09:19:30;;;;;;;42.35;30.75;;;;;;;;;;5055274;28;20032;-76
2022/11/08 09:21:56;;;;;;;45.28;30.60;;;;;;;;;;5055010;28;20055;-73
2022/11/08 09:24:22;;;;;;;44.10;31.75;;;;;;;;;;5055165;28;20417;-75
2022/11/08 09:26:48;;;;;;;57.42;39.88;;;;;;;;;;5054903;28;20029;-74
2022/11/08 09:29:14;;;;;;;51.70;34.55;;;;;;;;;;5055269;28;20482;-75
2022/11/08 09:31:40;;;;;;;52.65;32.00;;;;;;;;;;5054958;28;20075;-74
2022/11/08 09:34:06;;;;;;;41.95;29.63;;;;;;;;;;5055094;28;20032;-76
2022/11/08 09:36:32;;;;;;;39.60;29.90;;;;;;;;;;5054839;28;20519;-75
2022/11/08 09:38:58;;;;;;;52.17;38.47;;;;;;;;;;5054763;28;20379;-75
2022/11/08 09:41:27;;;;;;;50.03;33.58;;;;;;;;;;5054744;28;20490;-76
2022/11/08 09:44:19;;;;;;;49.58;31.95;;;;;;;;;;5054620;28;20480;-75
2022/11/08 09:46:51;;;;;;;58.80;39.25;;;;;;;;;;5054790;28;20045;-76
2022/11/08 09:49:40;;;;;;;58.00;37.55;;;;;;;;;;5054656;28;20056;-75
2022/11/08 09:52:06;;;;;;;72.22;44.28;;;;;;;;;;4973589;28;20047;-75
2022/11/08 09:54:36;;;;;;;71.80;43.00;;;;;;;;;;4974071;28;20078;-75
2022/11/08 09:57:04;;;;;;;35.50;25.27;;;;;;;;;;4974003;28;20054;-75
2022/11/08 09:59:39;;;;;;;40.85;29.05;;;;;;;;;;4973331;28;20587;-76
2022/11/08 10:02:18;;;;;;;38.42;26.95;;;;;;;;;;4973845;28;20078;-73
2022/11/08 10:04:48;;;;;;;34.10;27.25;;;;;;;;;;4973426;28;20072;-76
2022/11/08 10:07:23;;;;;;;39.88;28.48;;;;;;;;;;4973814;28;20050;-76
2022/11/08 10:10:08;;;;;;;52.20;30.92;;;;;;;;;;4973425;28;20419;-76
2022/11/08 10:12:37;;;;;;;51.40;38.05;;;;;;;;;;4973527;28;20066;-74
2022/11/08 10:15:03;;;;;;;48.10;34.90;;;;;;;;;;4973461;28;20069;-75
2022/11/08 10:17:35;;;;;;;49.15;33.25;;;;;;;;;;4957099;28;20019;-76
2022/11/08 10:20:13;;;;;;;65.13;46.13;;;;;;;;;;4973260;28;20034;-76
2022/11/08 10:22:39;;;;;;;38.30;26.92;;;;;;;;;;4973605;28;20051;-76
2022/11/08 10:25:16;;;;;;;29.83;24.33;;;;;;;;;;4957093;28;20421;-76
2022/11/08 10:27:42;;;;;;;30.33;22.75;;;;;;;;;;4973631;28;20026;-74
2022/11/08 10:30:18;;;;;;;37.97;29.23;;;;;;;;;;5048522;28;20041;-76
2022/11/08 10:32:45;;;;;;;31.95;24.73;;;;;;;;;;5040430;28;20100;-76
2022/11/08 10:35:11;;;;;;;27.88;23.40;;;;;;;;;;5053873;28;20021;-76
2022/11/08 10:37:38;;;;;;;30.63;23.65;;;;;;;;;;5053938;28;20122;-76
2022/11/08 10:40:12;;;;;;;32.08;27.58;;;;;;;;;;5053635;28;20028;-76
2022/11/08 10:42:44;;;;;;;41.20;26.55;;;;;;;;;;5053684;28;20082;-76
2022/11/08 10:45:11;;;;;;;29.33;24.90;;;;;;;;;;5053619;28;20045;-76
2022/11/08 10:47:37;;;;;;;30.83;24.48;;;;;;;;;;5053536;28;20025;-77
2022/11/08 10:50:14;;;;;;;28.13;24.17;;;;;;;;;;5053539;28;20013;-76
2022/11/08 10:52:43;;;;;;;23.92;20.35;;;;;;;;;;5053423;28;20024;-76
2022/11/08 10:55:22;;;;;;;27.63;21.98;;;;;;;;;;5053203;28;20021;-76
2022/11/08 10:57:48;;;;;;;20.23;17.52;;;;;;;;;;5053421;28;20044;-77
2022/11/08 11:00:20;;;;;;;21.92;17.85;;;;;;;;;;5053312;28;20096;-77
2022/11/08 11:02:51;;;;;;;23.20;18.48;;;;;;;;;;5053464;28;20110;-75
2022/11/08 11:05:17;;;;;;;23.45;18.50;;;;;;;;;;5053337;28;20390;-76
2022/11/08 11:08:03;;;;;;;18.83;16.88;;;;;;;;;;5053300;28;20112;-78
2022/11/08 11:10:29;;;;;;;20.02;17.92;;;;;;;;;;5027286;28;20037;-78
2022/11/08 11:13:15;;;;;;;23.55;18.85;;;;;;;;;;5053512;28;20043;-76
2022/11/08 11:15:52;;;;;;;24.25;20.38;;;;;;;;;;5039598;28;20483;-76
2022/11/08 11:18:18;;;;;;;27.08;21.02;;;;;;;;;;5052951;28;20032;-75
2022/11/08 11:20:57;;;;;;;19.90;17.63;;;;;;;;;;5052974;28;20025;-76
2022/11/08 11:23:23;;;;;;;30.13;24.40;;;;;;;;;;5053045;28;20021;-76
2022/11/08 11:25:51;;;;;;;42.42;31.67;;;;;;;;;;5052691;28;20028;-76
2022/11/08 11:28:17;;;;;;;41.13;30.17;;;;;;;;;;5053064;28;20486;-76
2022/11/08 11:30:46;;;;;;;21.38;17.27;;;;;;;;;;5052472;28;20017;-76
2022/11/08 11:33:22;;;;;;;19.48;16.88;;;;;;;;;;5053038;28;20017;-75
2022/11/08 11:35:54;;;;;;;20.25;16.33;;;;;;;;;;5032572;28;20395;-76
2022/11/08 11:38:29;;;;;;;18.80;14.48;;;;;;;;;;5043642;28;20494;-76
2022/11/08 11:40:58;;;;;;;19.88;16.80;;;;;;;;;;5033261;28;20104;-77
2022/11/08 11:43:29;;;;;;;16.08;14.40;;;;;;;;;;5043570;28;20029;-77
2022/11/08 11:46:03;;;;;;;15.93;13.20;;;;;;;;;;5052547;28;20076;-75
2022/11/08 11:48:30;;;;;;;20.58;14.50;;;;;;;;;;5052734;28;20021;-76
2022/11/08 11:50:57;;;;;;;16.55;14.68;;;;;;;;;;5052461;28;20040;-76
2022/11/08 11:53:25;;;;;;;17.63;15.73;;;;;;;;;;5052611;28;20491;-77
2022/11/08 11:55:57;;;;;;;33.78;25.20;;;;;;;;;;5052499;28;20025;-77
2022/11/08 11:58:23;;;;;;;16.52;14.82;;;;;;;;;;5052476;28;20024;-77
2022/11/08 12:00:54;;;;;;;19.60;16.98;;;;;;;;;;5052468;28;20021;-75
2022/11/08 12:03:35;;;;;;;23.27;19.60;;;;;;;;;;5052367;28;20036;-75
2022/11/08 12:06:20;;;;;;;14.77;13.18;;;;;;;;;;5052441;28;20029;-78
2022/11/08 12:08:58;;;;;;;14.73;13.23;;;;;;;;;;5052043;28;20058;-76
2022/11/08 12:11:32;;;;;;;17.40;13.00;;;;;;;;;;5052359;28;20388;-77
2022/11/08 12:14:01;;;;;;;53.65;31.00;;;;;;;;;;5038316;28;20367;-78
2022/11/08 12:16:27;;;;;;;46.75;34.92;;;;;;;;;;5052362;28;20082;-79
2022/11/08 12:18:56;;;;;;;18.38;14.70;;;;;;;;;;5052239;28;20118;-76
2022/11/08 12:21:25;;;;;;;18.30;14.57;;;;;;;;;;5052474;28;20025;-79
2022/11/08 12:24:12;;;;;;;12.70;11.50;;;;;;;;;;5056328;28;20028;-78
2022/11/08 12:26:38;;;;;;;15.57;14.00;;;;;;;;;;5056115;28;20108;-77
2022/11/08 12:29:24;;;;;;;25.42;17.45;;;;;;;;;;5056121;28;20191;-78
2022/11/08 12:32:05;;;;;;;18.48;14.95;;;;;;;;;;5056190;28;20033;-78
2022/11/08 12:34:34;;;;;;;17.08;14.52;;;;;;;;;;5043573;28;20021;-78
2022/11/08 12:37:00;;;;;;;19.67;15.45;;;;;;;;;;5056396;28;20064;-79
2022/11/08 12:39:26;;;;;;;21.70;16.13;;;;;;;;;;5056084;28;20017;-78
2022/11/08 12:42:11;;;;;;;15.70;13.60;;;;;;;;;;5055941;28;20021;-78
2022/11/08 12:44:49;;;;;;;27.50;17.83;;;;;;;;;;5042133;28;20080;-78
2022/11/08 12:47:24;;;;;;;17.85;15.95;;;;;;;;;;5056022;28;20078;-77
2022/11/08 12:50:02;;;;;;;17.48;15.20;;;;;;;;;;5056068;28;20100;-79
2022/11/08 12:52:31;;;;;;;17.85;14.77;;;;;;;;;;5055641;28;20182;-77
2022/11/08 12:54:59;;;;;;;19.90;14.07;;;;;;;;;;5055817;28;20037;-77
2022/11/08 12:57:27;;;;;;;20.35;14.07;;;;;;;;;;5055678;28;20039;-77
2022/11/08 13:00:05;;;;;;;20.10;14.93;;;;;;;;;;5055825;28;20052;-77
2022/11/08 13:02:33;;;;;;;18.38;14.98;;;;;;;;;;5055946;28;20455;-77
2022/11/08 13:05:09;;;;;;;24.90;18.42;;;;;;;;;;5055657;28;20021;-77
2022/11/08 13:07:49;;;;;;;64.68;35.38;;;;;;;;;;5055363;28;20017;-77
2022/11/08 13:10:15;;;;;;;25.40;19.10;;;;;;;;;;5055007;28;20033;-77
2022/11/08 13:12:44;;;;;;;19.85;16.55;;;;;;;;;;5055641;28;20363;-78
2022/11/08 13:15:18;;;;;;;18.25;16.10;;;;;;;;;;5055029;28;20029;-78
2022/11/08 13:18:02;;;;;;;18.60;15.27;;;;;;;;;;5055310;28;20013;-77
2022/11/08 13:20:37;;;;;;;29.75;22.25;;;;;;;;;;5055565;28;20036;-77
2022/11/08 13:23:06;;;;;;;19.60;16.63;;;;;;;;;;5055261;28;20025;-77
2022/11/08 13:25:33;;;;;;;20.92;18.00;;;;;;;;;;5054940;28;20024;-78
2022/11/08 13:27:59;;;;;;;20.15;16.30;;;;;;;;;;5055476;28;20017;-76
2022/11/08 13:30:25;;;;;;;21.77;17.23;;;;;;;;;;5054850;28;20032;-74
2022/11/08 13:33:09;;;;;;;36.47;27.52;;;;;;;;;;5055054;28;20360;-77
2022/11/08 13:35:58;;;;;;;36.35;28.23;;;;;;;;;;5054353;28;20099;-77
2022/11/08 13:38:31;;;;;;;29.08;23.50;;;;;;;;;;5055056;28;20025;-77
2022/11/08 13:41:03;;;;;;;30.67;21.38;;;;;;;;;;5054847;28;20028;-76
2022/11/08 13:43:30;;;;;;;30.80;24.00;;;;;;;;;;5054379;28;20039;-77
2022/11/08 13:46:16;;;;;;;25.67;20.83;;;;;;;;;;5054782;28;20032;-76
2022/11/08 13:48:42;;;;;;;26.30;20.23;;;;;;;;;;5054865;28;20024;-76
2022/11/08 13:51:20;;;;;;;32.15;24.85;;;;;;;;;;5054640;28;20029;-76
2022/11/08 13:53:53;;;;;;;31.52;20.08;;;;;;;;;;5042343;28;20029;-76
2022/11/08 13:56:31;;;;;;;31.23;19.13;;;;;;;;;;5054664;28;20071;-75
2022/11/08 13:58:57;;;;;;;20.48;16.90;;;;;;;;;;5054462;28;20487;-76
2022/11/08 14:01:23;;;;;;;16.55;13.25;;;;;;;;;;5054289;28;20114;-77
2022/11/08 14:03:56;;;;;;;21.85;15.70;;;;;;;;;;5054407;28;20060;-76
2022/11/08 14:06:37;;;;;;;19.83;15.02;;;;;;;;;;5054798;28;20099;-75
2022/11/08 14:09:07;;;;;;;36.15;23.80;;;;;;;;;;5041859;28;20029;-76
2022/11/08 14:11:40;;;;;;;23.25;17.63;;;;;;;;;;5054150;28;20054;-76
2022/11/08 14:14:11;;;;;;;27.40;18.02;;;;;;;;;;5054030;28;20479;-75
2022/11/08 14:17:13;;;;;;;28.58;20.25;;;;;;;;;;5054312;28;20483;-76
2022/11/08 14:19:39;;;;;;;;;;;;;;;;;;4973682;28;20038;-76
2022/11/08 14:22:12;;;;;;;22.00;16.25;;;;;;;;;;4973131;28;19913;-76
2022/11/08 14:24:38;;;;;;;32.03;21.38;;;;;;;;;;4973403;28;20507;-76
2022/11/08 14:27:04;;;;;;;27.33;21.58;;;;;;;;;;4972625;28;20066;-75
2022/11/08 14:29:30;;;;;;;18.50;15.65;;;;;;;;;;4973393;28;20030;-75
2022/11/08 14:32:14;;;;;;;25.40;19.58;;;;;;;;;;4972916;28;20039;-76
2022/11/08 14:34:40;;;;;;;26.45;21.05;;;;;;;;;;4973413;28;20043;-77
2022/11/08 14:37:14;;;;;;;28.40;19.30;;;;;;;;;;4973014;28;20268;-76
2022/11/08 14:39:44;;;;;;;28.38;18.20;;;;;;;;;;4973175;28;20031;-76
2022/11/08 14:42:18;;;;;;;35.95;22.02;;;;;;;;;;4972740;28;20035;-76
2022/11/08 14:44:45;;;;;;;31.92;21.67;;;;;;;;;;4972817;28;20077;-76
2022/11/08 14:47:29;;;;;;;24.27;18.45;;;;;;;;;;4972758;28;20043;-77